createdAt,value
2018-06-21T00:01:40.839Z,6.10
2018-06-21T00:04:09.423Z,5.67
2018-06-21T00:06:37.911Z,5.87
2018-06-21T00:09:07.846Z,6.37
2018-06-21T00:11:36.328Z,6.67
2018-06-21T00:14:21.414Z,6.50
2018-06-21T00:17:06.401Z,6.90
2018-06-21T00:19:51.423Z,6.63
2018-06-21T00:22:19.834Z,6.67
2018-06-21T00:24:48.268Z,7.00
2018-06-21T00:27:16.745Z,7.47
2018-06-21T00:29:45.178Z,6.97
2018-06-21T00:32:13.627Z,6.97
2018-06-21T00:34:42.084Z,7.40
2018-06-21T00:37:10.495Z,7.07
2018-06-21T00:39:38.978Z,6.83
2018-06-21T00:42:07.680Z,6.53
2018-06-21T00:44:36.156Z,7.27
2018-06-21T00:47:04.620Z,7.10
2018-06-21T00:49:33.073Z,7.20
2018-06-21T00:52:01.563Z,7.47
2018-06-21T00:54:30.013Z,7.50
2018-06-21T00:56:58.443Z,7.40
2018-06-21T00:59:27.378Z,7.33
2018-06-21T01:01:55.948Z,7.27
2018-06-21T01:04:24.404Z,7.43
2018-06-21T01:06:52.903Z,6.80
2018-06-21T01:09:21.350Z,7.33
2018-06-21T01:11:49.886Z,6.77
2018-06-21T01:14:18.291Z,7.23
2018-06-21T01:16:46.703Z,7.63
2018-06-21T01:19:15.959Z,7.60
2018-06-21T01:21:44.356Z,7.23
2018-06-21T01:24:12.792Z,6.93
2018-06-21T01:26:41.362Z,7.00
2018-06-21T01:29:09.538Z,7.03
2018-06-21T01:31:38.082Z,7.13
2018-06-21T01:34:06.561Z,7.30
2018-06-21T01:36:34.977Z,7.03
2018-06-21T01:39:03.806Z,7.30
2018-06-21T01:41:32.203Z,7.10
2018-06-21T01:44:00.631Z,7.33
2018-06-21T01:46:28.775Z,7.03
2018-06-21T01:48:57.251Z,6.87
2018-06-21T01:51:25.787Z,7.70
2018-06-21T01:53:54.246Z,7.20
2018-06-21T01:56:22.806Z,7.63
2018-06-21T01:58:51.285Z,7.63
2018-06-21T02:01:19.757Z,7.87
2018-06-21T02:03:48.202Z,7.83
2018-06-21T02:06:16.655Z,7.93
2018-06-21T02:08:45.128Z,7.63
2018-06-21T02:11:13.627Z,7.70
2018-06-21T02:13:42.143Z,7.80
2018-06-21T02:16:10.634Z,7.53
2018-06-21T02:18:39.034Z,7.63
2018-06-21T02:21:08.142Z,7.40
2018-06-21T02:23:36.596Z,7.63
2018-06-21T02:26:05.239Z,7.63
2018-06-21T02:28:33.739Z,7.60
2018-06-21T02:31:02.189Z,7.67
2018-06-21T02:33:31.025Z,6.87
2018-06-21T02:35:59.451Z,7.53
2018-06-21T02:38:27.919Z,7.87
2018-06-21T02:40:56.385Z,8.50
2018-06-21T02:43:24.792Z,9.20
2018-06-21T02:45:53.253Z,10.50
2018-06-21T02:48:21.647Z,11.43
2018-06-21T02:50:50.119Z,12.33
2018-06-21T02:53:18.592Z,11.00
2018-06-21T02:55:46.993Z,12.43
2018-06-21T02:58:15.482Z,13.90
2018-06-21T03:00:43.918Z,13.83
2018-06-21T03:03:12.343Z,12.53
2018-06-21T03:05:40.756Z,12.30
2018-06-21T03:08:09.230Z,13.00
2018-06-21T03:10:37.679Z,11.93
2018-06-21T03:13:06.124Z,11.67
2018-06-21T03:15:34.533Z,11.40
2018-06-21T03:18:03.054Z,10.83
2018-06-21T03:20:31.518Z,10.93
2018-06-21T03:22:59.909Z,11.07
2018-06-21T03:25:28.374Z,11.77
2018-06-21T03:27:56.847Z,12.20
2018-06-21T03:30:25.302Z,12.27
2018-06-21T03:32:53.884Z,12.03
2018-06-21T03:35:22.356Z,12.63
2018-06-21T03:37:50.499Z,10.50
2018-06-21T03:40:18.970Z,13.17
2018-06-21T03:42:47.411Z,13.23
2018-06-21T03:45:15.842Z,12.47
2018-06-21T03:47:44.285Z,12.73
2018-06-21T03:50:12.712Z,11.33
2018-06-21T03:52:41.157Z,13.60
2018-06-21T03:55:09.617Z,11.83
2018-06-21T03:57:38.039Z,12.87
2018-06-21T04:00:06.689Z,13.37
2018-06-21T04:02:35.948Z,12.97
2018-06-21T04:05:04.446Z,13.03
2018-06-21T04:07:32.570Z,13.60
2018-06-21T04:10:00.998Z,13.20
2018-06-21T04:12:29.491Z,13.00
2018-06-21T04:14:58.306Z,11.67
2018-06-21T04:17:26.805Z,12.33
2018-06-21T04:19:55.253Z,12.23
2018-06-21T04:22:23.718Z,11.23
2018-06-21T04:24:52.204Z,12.63
2018-06-21T04:27:20.650Z,11.30
2018-06-21T04:29:49.084Z,12.20
2018-06-21T04:32:17.657Z,12.33
2018-06-21T04:34:46.106Z,11.60
2018-06-21T04:37:14.553Z,12.03
2018-06-21T04:39:42.972Z,12.33
2018-06-21T04:42:11.475Z,10.53
2018-06-21T04:44:40.203Z,9.80
2018-06-21T04:47:08.632Z,11.67
2018-06-21T04:49:37.168Z,12.43
2018-06-21T04:52:05.696Z,12.07
2018-06-21T04:54:34.234Z,10.77
2018-06-21T04:57:02.762Z,11.93
2018-06-21T04:59:31.163Z,12.33
2018-06-21T05:01:59.620Z,10.37
2018-06-21T05:04:28.731Z,11.47
2018-06-21T05:06:57.172Z,10.93
2018-06-21T05:09:26.230Z,10.33
2018-06-21T05:11:54.681Z,10.97
2018-06-21T05:14:23.114Z,8.73
2018-06-21T05:16:51.285Z,8.53
2018-06-21T05:19:19.728Z,6.90
2018-06-21T05:21:48.203Z,8.70
2018-06-21T05:24:16.645Z,8.60
2018-06-21T05:26:45.082Z,5.10
2018-06-21T05:29:13.442Z,6.57
2018-06-21T05:31:41.829Z,5.67
2018-06-21T05:34:10.297Z,6.70
2018-06-21T05:36:38.727Z,6.37
2018-06-21T05:39:08.710Z,7.13
2018-06-21T05:41:37.138Z,6.50
2018-06-21T05:44:05.313Z,7.63
2018-06-21T05:46:33.855Z,7.30
2018-06-21T05:49:02.274Z,6.93
2018-06-21T05:51:30.649Z,7.47
2018-06-21T05:53:59.034Z,6.83
2018-06-21T05:56:27.576Z,5.83
2018-06-21T05:58:55.961Z,6.13
2018-06-21T06:01:24.318Z,5.33
2018-06-21T06:03:52.870Z,4.30
2018-06-21T06:06:21.246Z,4.20
2018-06-21T06:08:50.481Z,3.43
2018-06-21T06:11:18.918Z,2.97
2018-06-21T06:13:46.976Z,2.97
2018-06-21T06:16:15.358Z,2.23
2018-06-21T06:18:43.823Z,2.67
2018-06-21T06:21:12.206Z,2.37
2018-06-21T06:23:40.594Z,2.27
2018-06-21T06:26:08.997Z,2.10
2018-06-21T06:28:37.443Z,2.40
2018-06-21T06:31:06.001Z,2.27
2018-06-21T06:33:34.372Z,2.13
2018-06-21T06:36:02.793Z,2.20
2018-06-21T06:38:31.202Z,2.60
2018-06-21T06:40:59.280Z,2.40
2018-06-21T06:43:27.719Z,2.33
2018-06-21T06:45:56.174Z,2.23
2018-06-21T06:48:25.164Z,2.20
2018-06-21T06:50:53.907Z,2.20
2018-06-21T06:53:22.322Z,1.90
2018-06-21T06:55:50.707Z,2.20
2018-06-21T06:58:25.915Z,2.00
2018-06-21T07:00:54.341Z,2.20
2018-06-21T07:03:22.806Z,2.20
2018-06-21T07:05:51.234Z,1.90
2018-06-21T07:08:21.072Z,2.30
2018-06-21T07:10:49.510Z,2.37
2018-06-21T07:13:17.937Z,2.40
2018-06-21T07:15:46.370Z,2.50
2018-06-21T07:18:14.753Z,2.50
2018-06-21T07:20:43.204Z,2.43
2018-06-21T07:23:11.642Z,2.50
2018-06-21T07:25:40.146Z,2.10
2018-06-21T07:28:08.555Z,2.40
2018-06-21T07:30:36.967Z,2.50
2018-06-21T07:33:05.342Z,2.60
2018-06-21T07:35:33.727Z,1.93
2018-06-21T07:38:02.158Z,2.30
2018-06-21T07:40:30.723Z,2.30
2018-06-21T07:42:59.221Z,2.30
2018-06-21T07:45:27.625Z,2.07
2018-06-21T07:47:56.030Z,2.40
2018-06-21T07:50:24.449Z,2.60
2018-06-21T07:52:52.840Z,2.33
2018-06-21T07:55:21.239Z,2.20
2018-06-21T07:57:49.611Z,2.53
2018-06-21T08:00:18.686Z,1.90
2018-06-21T08:02:47.098Z,2.80
2018-06-21T08:05:15.488Z,2.27
2018-06-21T08:07:44.565Z,2.55
2018-06-21T08:10:13.007Z,2.20
2018-06-21T08:12:41.370Z,2.33
2018-06-21T08:15:09.950Z,2.30
2018-06-21T08:17:38.455Z,2.20
2018-06-21T08:20:06.909Z,2.30
2018-06-21T08:22:35.374Z,2.20
2018-06-21T08:25:03.882Z,2.37
2018-06-21T08:27:32.367Z,1.93
2018-06-21T08:30:00.781Z,2.10
2018-06-21T08:32:29.187Z,2.27
2018-06-21T08:34:57.571Z,2.13
2018-06-21T08:37:25.997Z,2.30
2018-06-21T08:39:54.405Z,2.17
2018-06-21T08:42:22.797Z,2.10
2018-06-21T08:44:51.144Z,2.33
2018-06-21T08:47:19.752Z,2.87
2018-06-21T08:49:48.225Z,2.53
2018-06-21T08:52:16.611Z,2.97
2018-06-21T08:54:44.986Z,2.13
2018-06-21T08:57:13.592Z,2.50
2018-06-21T08:59:42.486Z,2.77
2018-06-21T09:02:10.870Z,2.70
2018-06-21T09:04:39.338Z,2.23
2018-06-21T09:07:07.747Z,1.80
2018-06-21T09:09:36.207Z,2.33
2018-06-21T09:12:05.486Z,1.80
2018-06-21T09:14:33.875Z,2.00
2018-06-21T09:17:02.235Z,2.00
2018-06-21T09:19:30.628Z,2.27
2018-06-21T09:21:59.041Z,1.80
2018-06-21T09:24:27.469Z,1.90
2018-06-21T09:26:55.925Z,1.70
2018-06-21T09:29:24.358Z,1.30
2018-06-21T09:31:52.733Z,2.00
2018-06-21T09:34:21.210Z,1.50
2018-06-21T09:36:49.630Z,1.83
2018-06-21T09:39:23.403Z,1.90
2018-06-21T09:41:57.234Z,1.90
2018-06-21T09:44:29.361Z,1.60
2018-06-21T09:47:03.312Z,1.70
2018-06-21T09:49:32.710Z,2.10
2018-06-21T09:52:03.069Z,2.40
2018-06-21T09:54:32.088Z,2.10
2018-06-21T09:57:00.471Z,1.57
2018-06-21T09:59:29.718Z,1.30
2018-06-21T10:01:58.145Z,1.67
2018-06-21T10:04:26.600Z,2.00
2018-06-21T10:06:55.026Z,1.90
2018-06-21T10:09:23.515Z,1.77
2018-06-21T10:11:51.914Z,1.70
2018-06-21T10:14:20.560Z,1.63
2018-06-21T10:16:49.003Z,1.70
2018-06-21T10:19:17.390Z,1.67
2018-06-21T10:21:45.871Z,2.03
2018-06-21T10:24:14.277Z,1.40
2018-06-21T10:26:42.653Z,1.60
2018-06-21T10:29:10.766Z,1.67
2018-06-21T10:31:39.209Z,1.70
2018-06-21T10:34:07.634Z,1.73
2018-06-21T10:36:36.074Z,1.57
2018-06-21T10:39:06.313Z,1.90
2018-06-21T10:41:34.694Z,1.73
2018-06-21T10:44:03.138Z,1.77
2018-06-21T10:46:31.269Z,1.50
2018-06-21T10:48:59.628Z,1.67
2018-06-21T10:51:28.146Z,1.90
2018-06-21T10:53:56.567Z,1.83
2018-06-21T10:56:24.957Z,1.70
2018-06-21T10:58:53.317Z,1.57
2018-06-21T11:01:21.719Z,1.90
2018-06-21T11:03:50.097Z,1.90
2018-06-21T11:06:18.489Z,1.93
2018-06-21T11:08:46.946Z,2.10
2018-06-21T11:11:15.384Z,1.57
2018-06-21T11:13:43.802Z,1.70
2018-06-21T11:16:12.277Z,1.80
2018-06-21T11:18:40.710Z,1.90
2018-06-21T11:21:09.559Z,2.20
2018-06-21T11:23:37.940Z,1.87
2018-06-21T11:26:06.393Z,2.50
2018-06-21T11:28:34.776Z,2.10
2018-06-21T11:31:03.197Z,1.43
2018-06-21T11:33:31.638Z,2.00
2018-06-21T11:36:00.130Z,2.47
2018-06-21T11:38:28.574Z,1.40
2018-06-21T11:40:57.036Z,2.00
2018-06-21T11:43:25.397Z,1.90
2018-06-21T11:45:53.945Z,2.23
2018-06-21T11:48:22.312Z,2.03
2018-06-21T11:50:50.722Z,2.53
2018-06-21T11:53:19.185Z,2.40
2018-06-21T11:55:47.625Z,1.67
2018-06-21T11:58:16.085Z,2.20
2018-06-21T12:00:44.505Z,2.30
2018-06-21T12:03:12.910Z,1.97
2018-06-21T12:05:41.507Z,2.03
2018-06-21T12:08:09.882Z,2.07
2018-06-21T12:10:38.283Z,2.33
2018-06-21T12:13:06.654Z,2.00
2018-06-21T12:15:35.337Z,2.00
2018-06-21T12:18:03.753Z,1.47
2018-06-21T12:20:32.102Z,1.80
2018-06-21T12:23:00.478Z,1.80
2018-06-21T12:25:28.850Z,2.10
2018-06-21T12:27:57.236Z,1.90
2018-06-21T12:30:25.634Z,2.23
2018-06-21T12:32:54.066Z,1.60
2018-06-21T12:35:22.440Z,1.80
2018-06-21T12:37:50.822Z,1.90
2018-06-21T12:40:19.226Z,2.33
2018-06-21T12:42:47.647Z,2.20
2018-06-21T12:45:16.055Z,1.80
2018-06-21T12:47:44.473Z,1.70
2018-06-21T12:50:13.267Z,1.77
2018-06-21T12:52:41.685Z,1.63
2018-06-21T12:55:10.069Z,2.27
2018-06-21T12:57:38.462Z,2.00
2018-06-21T13:00:06.918Z,1.80
2018-06-21T13:02:35.347Z,2.00
2018-06-21T13:05:04.564Z,1.60
2018-06-21T13:07:32.934Z,1.83
2018-06-21T13:10:12.937Z,2.60
2018-06-21T13:12:53.390Z,2.47
2018-06-21T13:15:21.815Z,1.87
2018-06-21T13:17:50.203Z,2.00
2018-06-21T13:20:18.587Z,2.60
2018-06-21T13:22:47.015Z,2.23
2018-06-21T13:25:15.466Z,2.17
2018-06-21T13:27:44.544Z,2.00
2018-06-21T13:30:13.067Z,2.10
2018-06-21T13:32:41.466Z,1.90
2018-06-21T13:35:09.968Z,1.90
2018-06-21T13:37:38.362Z,2.13
2018-06-21T13:40:06.792Z,1.90
2018-06-21T13:42:35.194Z,2.40
2018-06-21T13:45:03.698Z,2.27
2018-06-21T13:47:32.154Z,2.40
2018-06-21T13:50:00.593Z,2.27
2018-06-21T13:52:29.003Z,1.50
2018-06-21T13:54:57.533Z,2.40
2018-06-21T13:57:25.947Z,1.80
2018-06-21T13:59:54.333Z,2.30
2018-06-21T14:02:22.749Z,2.20
2018-06-21T14:04:51.155Z,2.40
2018-06-21T14:07:20.065Z,1.70
2018-06-21T14:09:48.506Z,1.70
2018-06-21T14:12:16.617Z,2.20
2018-06-21T14:14:45.056Z,2.33
2018-06-21T14:17:13.402Z,2.30
2018-06-21T14:19:41.854Z,2.40
2018-06-21T14:22:10.398Z,2.03
2018-06-21T14:24:38.544Z,2.40
2018-06-21T14:27:06.935Z,1.90
2018-06-21T14:29:35.349Z,2.00
2018-06-21T14:32:03.767Z,1.87
2018-06-21T14:34:32.248Z,1.80
2018-06-21T14:37:00.656Z,1.40
2018-06-21T14:39:29.089Z,1.53
2018-06-21T14:41:57.574Z,1.40
2018-06-21T14:44:25.961Z,1.70
2018-06-21T14:46:54.355Z,1.80
2018-06-21T14:49:22.757Z,1.67
2018-06-21T14:51:51.145Z,2.10
2018-06-21T14:54:19.699Z,2.00
2018-06-21T14:56:48.207Z,1.73
2018-06-21T14:59:16.564Z,1.60
2018-06-21T15:01:45.777Z,1.62
2018-06-21T15:04:14.164Z,1.80
2018-06-21T15:06:42.557Z,1.80
2018-06-21T15:09:12.809Z,1.57
2018-06-21T15:11:41.308Z,2.00
2018-06-21T15:14:09.770Z,1.80
2018-06-21T15:16:38.169Z,2.10
2018-06-21T15:19:06.690Z,1.90
2018-06-21T15:21:35.120Z,2.20
2018-06-21T15:24:03.583Z,1.70
2018-06-21T15:26:32.194Z,1.40
2018-06-21T15:29:00.726Z,2.30
2018-06-21T15:31:29.177Z,1.90
2018-06-21T15:33:57.691Z,1.60
2018-06-21T15:36:26.089Z,1.50
2018-06-21T15:38:57.470Z,2.10
2018-06-21T15:41:26.552Z,1.80
2018-06-21T15:43:54.944Z,1.77
2018-06-21T15:46:23.538Z,2.00
2018-06-21T15:48:51.923Z,1.90
2018-06-21T15:51:20.329Z,2.10
2018-06-21T15:53:48.731Z,1.43
2018-06-21T15:56:17.119Z,1.60
2018-06-21T15:58:45.851Z,1.50
2018-06-21T16:01:13.960Z,1.77
2018-06-21T16:03:42.360Z,1.70
2018-06-21T16:06:10.874Z,2.00
2018-06-21T16:08:39.375Z,2.17
2018-06-21T16:11:07.849Z,1.90
2018-06-21T16:13:36.307Z,1.90
2018-06-21T16:16:04.736Z,1.90
2018-06-21T16:18:33.117Z,1.77
2018-06-21T16:21:01.554Z,1.40
2018-06-21T16:23:29.991Z,1.83
2018-06-21T16:25:58.400Z,2.00
2018-06-21T16:28:26.762Z,1.37
2018-06-21T16:30:55.226Z,1.70
2018-06-21T16:33:23.586Z,2.10
2018-06-21T16:35:51.954Z,2.07
2018-06-21T16:38:20.370Z,2.00
2018-06-21T16:40:48.877Z,2.13
2018-06-21T16:43:17.236Z,2.03
2018-06-21T16:45:45.704Z,2.17
2018-06-21T16:48:14.082Z,2.70
2018-06-21T16:50:42.454Z,2.87
2018-06-21T16:53:10.529Z,1.93
2018-06-21T16:55:38.978Z,2.07
2018-06-21T16:58:07.356Z,2.87
2018-06-21T17:00:35.763Z,2.10
2018-06-21T17:03:05.231Z,1.70
2018-06-21T17:05:33.426Z,2.30
2018-06-21T17:08:01.858Z,2.30
2018-06-21T17:10:30.726Z,2.43
2018-06-21T17:12:59.169Z,2.37
2018-06-21T17:15:27.564Z,2.00
2018-06-21T17:17:55.960Z,2.37
2018-06-21T17:20:24.360Z,2.60
2018-06-21T17:22:52.814Z,1.90
2018-06-21T17:25:21.864Z,2.47
2018-06-21T17:27:50.231Z,1.97
2018-06-21T17:30:18.803Z,2.50
2018-06-21T17:32:48.041Z,2.57
2018-06-21T17:35:16.487Z,2.60
2018-06-21T17:37:45.769Z,2.23
2018-06-21T17:40:14.238Z,2.53
2018-06-21T17:43:57.823Z,2.00
2018-06-21T17:46:26.305Z,1.73
2018-06-21T17:48:55.051Z,1.57
2018-06-21T17:51:23.517Z,2.00
2018-06-21T17:53:51.895Z,2.20
2018-06-21T17:56:20.305Z,1.60
2018-06-21T17:58:48.674Z,1.93
2018-06-21T18:01:17.095Z,2.03
2018-06-21T18:03:45.661Z,1.83
2018-06-21T18:06:14.033Z,2.13
2018-06-21T18:08:42.481Z,2.73
2018-06-21T18:11:10.934Z,1.93
2018-06-21T18:13:39.375Z,2.60
2018-06-21T18:16:07.969Z,1.70
2018-06-21T18:18:36.460Z,1.57
2018-06-21T18:21:04.948Z,1.90
2018-06-21T18:23:33.380Z,1.50
2018-06-21T18:26:01.807Z,1.60
2018-06-21T18:28:30.710Z,1.87
2018-06-21T18:30:59.157Z,1.80
2018-06-21T18:33:27.616Z,1.70
2018-06-21T18:35:56.113Z,2.10
2018-06-21T18:38:24.722Z,1.90
2018-06-21T18:40:53.139Z,2.00
2018-06-21T18:43:21.549Z,2.03
2018-06-21T18:45:50.152Z,2.63
2018-06-21T18:48:18.576Z,2.20
2018-06-21T18:50:46.997Z,1.70
2018-06-21T18:53:15.508Z,2.57
2018-06-21T18:55:44.370Z,2.30
2018-06-21T18:58:12.785Z,2.23
2018-06-21T19:00:41.264Z,2.40
2018-06-21T19:03:09.727Z,2.23
2018-06-21T19:05:38.106Z,2.00
2018-06-21T19:08:11.849Z,1.70
2018-06-21T19:10:45.521Z,2.10
2018-06-21T19:13:14.038Z,2.20
2018-06-21T19:15:42.461Z,1.93
2018-06-21T19:18:10.916Z,1.93
2018-06-21T19:20:39.346Z,1.67
2018-06-21T19:23:07.844Z,2.10
2018-06-21T19:25:36.345Z,2.30
2018-06-21T19:28:05.051Z,2.47
2018-06-21T19:30:33.617Z,2.43
2018-06-21T19:33:02.501Z,2.30
2018-06-21T19:35:30.995Z,2.47
2018-06-21T19:37:59.502Z,2.17
2018-06-21T19:40:27.859Z,2.33
2018-06-21T19:42:56.320Z,2.17
2018-06-21T19:45:24.712Z,2.40
2018-06-21T19:47:53.098Z,2.43
2018-06-21T19:50:21.710Z,2.27
2018-06-21T19:52:50.106Z,2.40
2018-06-21T19:55:18.531Z,2.63
2018-06-21T19:57:46.911Z,1.80
2018-06-21T20:00:15.335Z,2.30
2018-06-21T20:02:49.090Z,2.10
2018-06-21T20:05:17.529Z,1.83
2018-06-21T20:07:46.541Z,2.20
2018-06-21T20:10:14.977Z,2.20
2018-06-21T20:12:43.350Z,2.00
2018-06-21T20:15:11.751Z,2.00
2018-06-21T20:17:40.205Z,2.20
2018-06-21T20:20:13.944Z,1.90
2018-06-21T20:22:42.366Z,2.03
2018-06-21T20:25:10.754Z,2.10
2018-06-21T20:27:39.181Z,2.10
2018-06-21T20:30:07.663Z,2.40
2018-06-21T20:32:36.113Z,2.20
2018-06-21T20:35:04.554Z,2.63
2018-06-21T20:37:32.995Z,2.20
2018-06-21T20:40:01.434Z,2.70
2018-06-21T20:42:29.888Z,2.30
2018-06-21T20:44:58.314Z,1.97
2018-06-21T20:47:26.706Z,2.60
2018-06-21T20:49:55.176Z,2.30
2018-06-21T20:52:29.430Z,2.20
2018-06-21T20:54:59.117Z,2.23
2018-06-21T20:57:28.502Z,2.40
2018-06-21T20:59:57.182Z,2.33
2018-06-21T21:02:25.699Z,2.50
2018-06-21T21:05:11.480Z,2.33
2018-06-21T21:07:39.784Z,2.67
2018-06-21T21:10:10.287Z,1.90
2018-06-21T21:12:38.891Z,2.30
2018-06-21T21:15:08.298Z,2.20
2018-06-21T21:17:36.770Z,2.40
2018-06-21T21:20:05.539Z,3.03
2018-06-21T21:22:34.451Z,2.60
2018-06-21T21:25:02.548Z,2.13
2018-06-21T21:27:31.000Z,2.60
2018-06-21T21:29:59.808Z,1.73
2018-06-21T21:32:28.521Z,2.40
2018-06-21T21:34:57.777Z,2.80
2018-06-21T21:37:26.879Z,2.50
2018-06-21T21:39:57.249Z,2.70
2018-06-21T21:42:25.949Z,2.03
2018-06-21T21:44:54.378Z,2.30
2018-06-21T21:47:23.257Z,2.60
2018-06-21T21:49:51.738Z,2.40
2018-06-21T21:52:20.158Z,2.37
2018-06-21T21:54:48.602Z,2.27
2018-06-21T21:57:17.122Z,2.90
2018-06-21T21:59:45.649Z,2.47
2018-06-21T22:02:14.075Z,2.30
2018-06-21T22:04:42.590Z,2.37
2018-06-21T22:07:10.986Z,2.07
2018-06-21T22:09:39.390Z,2.40
2018-06-21T22:12:08.094Z,2.80
2018-06-21T22:14:36.486Z,2.60
2018-06-21T22:17:04.949Z,2.10
2018-06-21T22:19:33.329Z,2.20
2018-06-21T22:22:01.822Z,2.10
2018-06-21T22:24:30.237Z,2.63
2018-06-21T22:26:58.635Z,2.10
2018-06-21T22:29:27.053Z,2.20
2018-06-21T22:31:55.412Z,2.17
2018-06-21T22:34:23.818Z,2.27
2018-06-21T22:36:52.263Z,2.60
2018-06-21T22:39:20.674Z,2.40
2018-06-21T22:41:49.071Z,2.37
2018-06-21T22:44:17.490Z,2.07
2018-06-21T22:46:46.780Z,2.70
2018-06-21T22:49:15.161Z,2.50
2018-06-21T22:51:43.673Z,2.10
2018-06-21T22:54:12.101Z,2.70
2018-06-21T22:56:40.457Z,2.67
2018-06-21T22:59:08.925Z,2.60
2018-06-21T23:01:37.278Z,2.60
2018-06-21T23:04:05.694Z,2.83
2018-06-21T23:06:34.191Z,2.43
2018-06-21T23:09:02.609Z,2.40
2018-06-21T23:11:31.037Z,2.20
2018-06-21T23:13:59.402Z,2.43
2018-06-21T23:16:27.833Z,2.60
2018-06-21T23:19:07.417Z,2.40
2018-06-21T23:21:35.919Z,2.30
2018-06-21T23:24:04.329Z,2.57
2018-06-21T23:26:32.757Z,2.40
2018-06-21T23:29:02.027Z,2.40
2018-06-21T23:31:30.489Z,2.33
2018-06-21T23:33:58.924Z,2.57
2018-06-21T23:36:27.936Z,2.37
2018-06-21T23:38:56.311Z,2.43
2018-06-21T23:41:24.696Z,2.30
2018-06-21T23:43:53.089Z,2.40
2018-06-21T23:46:22.035Z,2.50
2018-06-21T23:48:50.432Z,2.30
2018-06-21T23:51:18.806Z,2.37
2018-06-21T23:53:47.317Z,2.20
2018-06-21T23:56:15.795Z,2.00
2018-06-21T23:58:44.177Z,2.30
